createdAt,value
2022-09-12T00:00:58.897Z,463.0000
2022-09-12T00:02:01.100Z,462.0000
2022-09-12T00:03:03.354Z,464.0000
2022-09-12T00:04:03.354Z,464.0000
2022-09-12T00:05:05.617Z,463.0000
2022-09-12T00:06:07.887Z,463.0000
2022-09-12T00:07:10.102Z,465.0000
2022-09-12T00:08:12.434Z,463.0000
2022-09-12T00:09:14.527Z,464.0000
2022-09-12T00:10:16.786Z,463.0000
2022-09-12T00:11:19.015Z,464.0000
2022-09-12T00:12:21.249Z,460.0000
2022-09-12T00:13:23.520Z,468.0000
2022-09-12T00:14:25.715Z,466.0000
2022-09-12T00:15:28.010Z,468.0000
2022-09-12T00:16:28.180Z,468.0000
2022-09-12T00:17:30.419Z,468.0000
2022-09-12T00:18:32.712Z,468.0000
2022-09-12T00:19:34.977Z,466.0000
2022-09-12T00:20:35.080Z,465.0000
2022-09-12T00:21:37.358Z,463.0000
2022-09-12T00:22:39.557Z,467.0000
2022-09-12T00:23:41.844Z,467.0000
2022-09-12T00:24:44.133Z,467.0000
2022-09-12T00:25:46.421Z,470.0000
2022-09-12T00:26:48.704Z,469.0000
2022-09-12T00:27:50.993Z,465.0000
2022-09-12T00:28:53.398Z,464.0000
2022-09-12T00:29:55.570Z,465.0000
2022-09-12T00:30:57.857Z,466.0000
2022-09-12T00:31:58.044Z,466.0000
2022-09-12T00:33:00.218Z,467.0000
2022-09-12T00:34:02.500Z,468.0000
2022-09-12T00:35:04.757Z,466.0000
2022-09-12T00:36:07.002Z,467.0000
2022-09-12T00:37:09.284Z,466.0000
2022-09-12T00:38:11.531Z,469.0000
2022-09-12T00:39:13.801Z,472.0000
2022-09-12T00:40:13.978Z,469.0000
2022-09-12T00:41:16.169Z,469.0000
2022-09-12T00:42:18.436Z,468.0000
2022-09-12T00:43:20.692Z,467.0000
2022-09-12T00:44:20.922Z,467.0000
2022-09-12T00:45:23.163Z,465.0000
2022-09-12T00:46:25.363Z,466.0000
2022-09-12T00:47:27.625Z,465.0000
2022-09-12T00:48:27.732Z,466.0000
2022-09-12T00:49:30.055Z,464.0000
2022-09-12T00:50:32.315Z,466.0000
2022-09-12T00:51:34.599Z,465.0000
2022-09-12T00:52:34.746Z,463.0000
2022-09-12T00:53:37.001Z,464.0000
2022-09-12T00:54:39.195Z,462.0000
2022-09-12T00:55:41.356Z,463.0000
2022-09-12T00:56:43.528Z,465.0000
2022-09-12T00:57:43.612Z,465.0000
2022-09-12T00:58:45.946Z,465.0000
2022-09-12T00:59:48.027Z,464.0000
2022-09-12T01:00:50.283Z,467.0000
2022-09-12T01:01:52.467Z,464.0000
2022-09-12T01:02:54.519Z,467.0000
2022-09-12T01:03:54.595Z,468.0000
2022-09-12T01:04:56.836Z,470.0000
2022-09-12T01:05:59.059Z,472.0000
2022-09-12T01:07:01.235Z,471.0000
2022-09-12T01:08:03.475Z,473.0000
2022-09-12T01:09:03.509Z,473.0000
2022-09-12T01:10:05.717Z,471.0000
2022-09-12T01:11:07.917Z,470.0000
2022-09-12T01:12:10.137Z,472.0000
2022-09-12T01:13:12.349Z,472.0000
2022-09-12T01:14:12.399Z,471.0000
2022-09-12T01:15:14.587Z,472.0000
2022-09-12T01:16:16.811Z,470.0000
2022-09-12T01:17:18.933Z,454.0000
2022-09-12T01:18:21.043Z,500.0000
2022-09-12T01:19:23.238Z,472.0000
2022-09-12T01:20:25.432Z,471.0000
2022-09-12T01:21:27.592Z,452.0000
2022-09-12T01:22:29.786Z,466.0000
2022-09-12T01:23:32.035Z,468.0000
2022-09-12T01:24:34.227Z,468.0000
2022-09-12T01:25:34.374Z,471.0000
2022-09-12T01:26:36.440Z,468.0000
2022-09-12T01:27:38.637Z,466.0000
2022-09-12T01:28:40.854Z,466.0000
2022-09-12T01:29:43.078Z,462.0000
2022-09-12T01:30:45.344Z,462.0000
2022-09-12T01:31:47.632Z,460.0000
2022-09-12T01:32:49.833Z,461.0000
2022-09-12T01:33:52.088Z,456.0000
2022-09-12T01:34:52.127Z,459.0000
2022-09-12T01:35:54.400Z,458.0000
2022-09-12T01:36:56.379Z,459.0000
2022-09-12T01:37:58.491Z,461.0000
2022-09-12T01:39:00.642Z,460.0000
2022-09-12T01:40:02.851Z,462.0000
2022-09-12T01:41:04.918Z,460.0000
2022-09-12T01:42:07.018Z,461.0000
2022-09-12T01:43:09.146Z,462.0000
2022-09-12T01:44:11.306Z,461.0000
2022-09-12T01:45:13.504Z,462.0000
2022-09-12T01:46:15.665Z,460.0000
2022-09-12T01:47:17.809Z,461.0000
2022-09-12T01:48:19.954Z,461.0000
2022-09-12T01:49:22.164Z,462.0000
2022-09-12T01:50:24.358Z,462.0000
2022-09-12T01:51:26.699Z,461.0000
2022-09-12T01:52:28.806Z,460.0000
2022-09-12T01:53:31.027Z,463.0000
2022-09-12T01:54:33.304Z,459.0000
2022-09-12T01:55:35.474Z,457.0000
2022-09-12T01:56:37.737Z,456.0000
2022-09-12T01:57:39.868Z,460.0000
2022-09-12T01:58:42.092Z,461.0000
2022-09-12T01:59:44.192Z,461.0000
2022-09-12T02:00:46.503Z,461.0000
2022-09-12T02:01:48.756Z,461.0000
2022-09-12T02:02:50.860Z,462.0000
2022-09-12T02:03:53.075Z,463.0000
2022-09-12T02:04:55.282Z,462.0000
2022-09-12T02:05:57.554Z,462.0000
2022-09-12T02:06:59.680Z,459.0000
2022-09-12T02:08:01.872Z,461.0000
2022-09-12T02:09:04.016Z,461.0000
2022-09-12T02:10:06.221Z,461.0000
2022-09-12T02:11:08.394Z,462.0000
2022-09-12T02:12:10.617Z,463.0000
2022-09-12T02:13:10.723Z,461.0000
2022-09-12T02:14:12.898Z,463.0000
2022-09-12T02:15:15.108Z,462.0000
2022-09-12T02:16:17.371Z,461.0000
2022-09-12T02:17:19.571Z,462.0000
2022-09-12T02:18:19.581Z,463.0000
2022-09-12T02:19:21.792Z,461.0000
2022-09-12T02:20:46.494Z,460.0000
2022-09-12T02:21:26.230Z,461.0000
2022-09-12T02:22:28.531Z,460.0000
2022-09-12T02:23:28.518Z,462.0000
2022-09-12T02:24:30.746Z,465.0000
2022-09-12T02:25:33.003Z,465.0000
2022-09-12T02:26:35.248Z,467.0000
2022-09-12T02:27:37.423Z,467.0000
2022-09-12T02:28:37.483Z,466.0000
2022-09-12T02:29:39.724Z,465.0000
2022-09-12T02:30:42.016Z,463.0000
2022-09-12T02:31:44.250Z,463.0000
2022-09-12T02:32:46.477Z,467.0000
2022-09-12T02:33:48.631Z,468.0000
2022-09-12T02:34:50.808Z,464.0000
2022-09-12T02:35:53.060Z,460.0000
2022-09-12T02:36:55.343Z,463.0000
2022-09-12T02:37:55.425Z,463.0000
2022-09-12T02:38:57.662Z,462.0000
2022-09-12T02:40:00.035Z,462.0000
2022-09-12T02:41:02.261Z,463.0000
2022-09-12T02:42:02.301Z,459.0000
2022-09-12T02:43:04.619Z,464.0000
2022-09-12T02:44:06.948Z,464.0000
2022-09-12T02:45:09.139Z,464.0000
2022-09-12T02:46:09.354Z,467.0000
2022-09-12T02:47:11.564Z,468.0000
2022-09-12T02:48:13.951Z,465.0000
2022-09-12T02:49:16.091Z,469.0000
2022-09-12T02:50:16.257Z,469.0000
2022-09-12T02:51:23.406Z,467.0000
2022-09-12T02:52:20.749Z,470.0000
2022-09-12T02:53:23.089Z,467.0000
2022-09-12T02:54:25.243Z,466.0000
2022-09-12T02:55:27.565Z,468.0000
2022-09-12T02:56:29.816Z,465.0000
2022-09-12T02:57:32.072Z,467.0000
2022-09-12T02:58:32.308Z,469.0000
2022-09-12T02:59:34.495Z,469.0000
2022-09-12T03:00:36.721Z,470.0000
2022-09-12T03:01:38.990Z,468.0000
2022-09-12T03:02:39.111Z,466.0000
2022-09-12T03:03:43.414Z,468.0000
2022-09-12T03:04:43.679Z,465.0000
2022-09-12T03:05:45.974Z,464.0000
2022-09-12T03:06:45.975Z,461.0000
2022-09-12T03:07:48.192Z,461.0000
2022-09-12T03:08:50.475Z,462.0000
2022-09-12T03:09:52.797Z,464.0000
2022-09-12T03:10:55.037Z,467.0000
2022-09-12T03:11:57.357Z,468.0000
2022-09-12T03:12:59.630Z,468.0000
2022-09-12T03:14:01.980Z,471.0000
2022-09-12T03:15:04.204Z,473.0000
2022-09-12T03:16:06.523Z,473.0000
2022-09-12T03:17:08.711Z,468.0000
2022-09-12T03:18:10.960Z,468.0000
2022-09-12T03:19:13.298Z,470.0000
2022-09-12T03:20:15.513Z,470.0000
2022-09-12T03:21:17.845Z,469.0000
2022-09-12T03:22:20.068Z,468.0000
2022-09-12T03:23:22.371Z,470.0000
2022-09-12T03:24:24.702Z,470.0000
2022-09-12T03:25:26.875Z,467.0000
2022-09-12T03:26:29.130Z,471.0000
2022-09-12T03:27:31.432Z,474.0000
2022-09-12T03:28:33.714Z,476.0000
2022-09-12T03:29:33.828Z,476.0000
2022-09-12T03:30:36.136Z,477.0000
2022-09-12T03:31:38.367Z,473.0000
2022-09-12T03:32:40.676Z,473.0000
2022-09-12T03:33:40.764Z,473.0000
2022-09-12T03:34:43.067Z,475.0000
2022-09-12T03:35:45.364Z,475.0000
2022-09-12T03:36:47.488Z,475.0000
2022-09-12T03:37:49.750Z,475.0000
2022-09-12T03:38:51.985Z,474.0000
2022-09-12T03:39:54.357Z,473.0000
2022-09-12T03:40:56.550Z,479.0000
2022-09-12T03:41:58.828Z,477.0000
2022-09-12T03:43:01.175Z,476.0000
2022-09-12T03:44:03.395Z,478.0000
2022-09-12T03:45:03.540Z,475.0000
2022-09-12T03:46:05.850Z,473.0000
2022-09-12T03:47:11.279Z,471.0000
2022-09-12T03:48:10.316Z,470.0000
2022-09-12T03:49:12.538Z,471.0000
2022-09-12T03:50:14.825Z,469.0000
2022-09-12T03:52:40.694Z,462.0000
2022-09-12T03:53:42.843Z,466.0000
2022-09-12T03:54:45.054Z,465.0000
2022-09-12T03:55:47.406Z,462.0000
2022-09-12T03:56:47.394Z,461.0000
2022-09-12T03:57:49.632Z,464.0000
2022-09-12T03:58:51.908Z,465.0000
2022-09-12T03:59:54.148Z,462.0000
2022-09-12T04:00:56.472Z,463.0000
2022-09-12T04:01:58.682Z,463.0000
2022-09-12T04:03:00.892Z,464.0000
2022-09-12T04:04:03.126Z,466.0000
2022-09-12T04:05:05.371Z,466.0000
2022-09-12T04:06:05.580Z,465.0000
2022-09-12T04:07:07.719Z,465.0000
2022-09-12T04:08:09.970Z,464.0000
2022-09-12T04:09:12.222Z,463.0000
2022-09-12T04:10:16.221Z,463.0000
2022-09-12T04:11:16.783Z,462.0000
2022-09-12T04:12:16.869Z,464.0000
2022-09-12T04:13:19.131Z,464.0000
2022-09-12T04:14:21.363Z,464.0000
2022-09-12T04:15:23.592Z,467.0000
2022-09-12T04:16:25.933Z,466.0000
2022-09-12T04:17:28.101Z,469.0000
2022-09-12T04:18:30.353Z,470.0000
2022-09-12T04:19:32.602Z,468.0000
2022-09-12T04:20:34.851Z,471.0000
2022-09-12T04:21:37.209Z,473.0000
2022-09-12T04:22:37.164Z,473.0000
2022-09-12T04:23:39.416Z,470.0000
2022-09-12T04:24:41.663Z,471.0000
2022-09-12T04:25:43.912Z,471.0000
2022-09-12T04:26:46.214Z,470.0000
2022-09-12T04:27:48.432Z,472.0000
2022-09-12T04:28:50.674Z,470.0000
2022-09-12T04:29:52.958Z,469.0000
2022-09-12T04:30:55.195Z,467.0000
2022-09-12T04:31:55.283Z,467.0000
2022-09-12T04:32:57.460Z,467.0000
2022-09-12T04:33:59.639Z,467.0000
2022-09-12T04:35:01.837Z,469.0000
2022-09-12T04:36:04.028Z,467.0000
2022-09-12T04:37:06.247Z,468.0000
2022-09-12T04:38:08.436Z,465.0000
2022-09-12T04:39:10.641Z,469.0000
2022-09-12T04:40:12.920Z,470.0000
2022-09-12T04:41:15.053Z,471.0000
2022-09-12T04:42:17.279Z,475.0000
2022-09-12T04:43:19.443Z,475.0000
2022-09-12T04:44:21.638Z,475.0000
2022-09-12T04:45:23.885Z,475.0000
2022-09-12T04:46:26.093Z,472.0000
2022-09-12T04:47:26.173Z,476.0000
2022-09-12T04:48:28.345Z,474.0000
2022-09-12T04:49:30.554Z,475.0000
2022-09-12T04:50:32.733Z,476.0000
2022-09-12T04:51:34.898Z,476.0000
2022-09-12T04:52:37.132Z,476.0000
2022-09-12T04:53:39.385Z,476.0000
2022-09-12T04:54:41.580Z,477.0000
2022-09-12T04:55:43.874Z,476.0000
2022-09-12T04:56:46.143Z,477.0000
2022-09-12T04:57:48.411Z,477.0000
2022-09-12T04:58:50.645Z,476.0000
2022-09-12T04:59:50.745Z,476.0000
2022-09-12T05:00:53.072Z,476.0000
2022-09-12T05:01:55.224Z,477.0000
2022-09-12T05:02:57.472Z,478.0000
2022-09-12T05:03:59.617Z,478.0000
2022-09-12T05:05:01.833Z,477.0000
2022-09-12T05:06:04.080Z,476.0000
2022-09-12T05:07:06.321Z,478.0000
2022-09-12T05:08:08.613Z,475.0000
2022-09-12T05:09:10.833Z,474.0000
2022-09-12T05:10:13.075Z,475.0000
2022-09-12T05:11:13.147Z,476.0000
2022-09-12T05:12:15.359Z,476.0000
2022-09-12T05:13:17.603Z,477.0000
2022-09-12T05:14:19.729Z,474.0000
2022-09-12T05:15:21.891Z,473.0000
2022-09-12T05:16:24.106Z,473.0000
2022-09-12T05:17:26.239Z,475.0000
2022-09-12T05:19:04.047Z,464.0000
2022-09-12T05:20:05.179Z,462.0000
2022-09-12T05:21:07.371Z,460.0000
2022-09-12T05:22:09.598Z,460.0000
2022-09-12T05:23:11.782Z,460.0000
2022-09-12T05:24:14.034Z,455.0000
2022-09-12T05:25:16.228Z,460.0000
2022-09-12T05:26:18.451Z,460.0000
2022-09-12T05:27:20.652Z,460.0000
2022-09-12T05:28:22.864Z,460.0000
2022-09-12T05:29:25.167Z,461.0000
2022-09-12T05:30:27.368Z,459.0000
2022-09-12T05:31:29.549Z,460.0000
2022-09-12T05:32:31.753Z,461.0000
2022-09-12T05:33:31.850Z,464.0000
2022-09-12T05:34:34.114Z,467.0000
2022-09-12T05:35:36.329Z,469.0000
2022-09-12T05:36:38.509Z,471.0000
2022-09-12T05:37:40.688Z,471.0000
2022-09-12T05:38:42.916Z,469.0000
2022-09-12T05:39:45.211Z,473.0000
2022-09-12T05:40:47.405Z,479.0000
2022-09-12T05:41:49.638Z,480.0000
2022-09-12T05:42:51.865Z,482.0000
2022-09-12T05:43:54.097Z,479.0000
2022-09-12T05:44:56.277Z,484.0000
2022-09-12T05:45:58.504Z,488.0000
2022-09-12T05:46:58.569Z,493.0000
2022-09-12T05:48:00.746Z,495.0000
2022-09-12T05:49:02.950Z,500.0000
2022-09-12T05:50:05.148Z,504.0000
2022-09-12T05:51:07.331Z,503.0000
2022-09-12T05:52:09.540Z,499.0000
2022-09-12T05:53:11.777Z,498.0000
2022-09-12T05:54:13.986Z,500.0000
2022-09-12T05:55:16.270Z,501.0000
2022-09-12T05:56:18.507Z,495.0000
2022-09-12T05:57:20.774Z,502.0000
2022-09-12T05:58:23.091Z,496.0000
2022-09-12T05:59:23.258Z,488.0000
2022-09-12T06:00:25.606Z,490.0000
2022-09-12T06:01:27.967Z,488.0000
2022-09-12T06:02:30.204Z,490.0000
2022-09-12T06:03:32.413Z,489.0000
2022-09-12T06:04:34.690Z,491.0000
2022-09-12T06:05:36.938Z,495.0000
2022-09-12T06:06:36.996Z,497.0000
2022-09-12T06:07:39.274Z,497.0000
2022-09-12T06:08:41.532Z,494.0000
2022-09-12T06:09:43.754Z,496.0000
2022-09-12T06:10:46.056Z,498.0000
2022-09-12T06:11:48.176Z,498.0000
2022-09-12T06:12:50.370Z,501.0000
2022-09-12T06:13:52.573Z,504.0000
2022-09-12T06:14:54.803Z,509.0000
2022-09-12T06:15:57.034Z,507.0000
2022-09-12T06:16:59.307Z,508.0000
2022-09-12T06:18:01.507Z,508.0000
2022-09-12T06:19:01.511Z,509.0000
2022-09-12T06:20:03.722Z,507.0000
2022-09-12T06:21:05.977Z,505.0000
2022-09-12T06:22:08.160Z,510.0000
2022-09-12T06:23:10.410Z,511.0000
2022-09-12T06:24:12.557Z,514.0000
2022-09-12T06:25:14.783Z,509.0000
2022-09-12T06:26:17.040Z,511.0000
2022-09-12T06:27:19.269Z,514.0000
2022-09-12T06:28:21.478Z,513.0000
2022-09-12T06:29:23.692Z,509.0000
2022-09-12T06:30:26.078Z,506.0000
2022-09-12T06:31:28.147Z,506.0000
2022-09-12T06:32:30.341Z,505.0000
2022-09-12T06:33:30.451Z,505.0000
2022-09-12T06:34:32.666Z,503.0000
2022-09-12T06:35:34.905Z,501.0000
2022-09-12T06:36:37.192Z,502.0000
2022-09-12T06:37:39.386Z,502.0000
2022-09-12T06:38:41.717Z,500.0000
2022-09-12T06:39:44.000Z,501.0000
2022-09-12T06:40:46.259Z,503.0000
2022-09-12T06:41:48.581Z,507.0000
2022-09-12T06:42:48.703Z,506.0000
2022-09-12T06:43:51.005Z,505.0000
2022-09-12T06:44:53.300Z,503.0000
2022-09-12T06:45:55.617Z,501.0000
2022-09-12T06:46:58.000Z,497.0000
2022-09-12T06:48:00.202Z,497.0000
2022-09-12T06:49:00.382Z,497.0000
2022-09-12T06:50:02.674Z,495.0000
2022-09-12T06:51:04.959Z,495.0000
2022-09-12T06:52:07.230Z,495.0000
2022-09-12T06:53:09.455Z,497.0000
2022-09-12T06:54:11.702Z,497.0000
2022-09-12T06:55:14.218Z,497.0000
2022-09-12T06:56:14.151Z,496.0000
2022-09-12T06:57:16.462Z,492.0000
2022-09-12T06:58:18.702Z,494.0000
2022-09-12T06:59:20.982Z,492.0000
2022-09-12T07:00:23.290Z,489.0000
2022-09-12T07:01:23.475Z,491.0000
2022-09-12T07:02:25.816Z,492.0000
2022-09-12T07:03:27.982Z,494.0000
2022-09-12T07:04:30.307Z,496.0000
2022-09-12T07:05:32.557Z,490.0000
2022-09-12T07:06:34.788Z,488.0000
2022-09-12T07:07:37.068Z,490.0000
2022-09-12T07:08:39.303Z,486.0000
2022-09-12T07:09:39.437Z,482.0000
2022-09-12T07:10:41.728Z,481.0000
2022-09-12T07:11:44.006Z,484.0000
2022-09-12T07:12:46.260Z,483.0000
2022-09-12T07:13:48.517Z,483.0000
2022-09-12T07:14:50.800Z,485.0000
2022-09-12T07:15:53.072Z,486.0000
2022-09-12T07:16:55.448Z,492.0000
2022-09-12T07:17:55.546Z,532.0000
2022-09-12T07:18:57.845Z,540.0000
2022-09-12T07:20:00.197Z,543.0000
2022-09-12T07:21:02.314Z,548.0000
2022-09-12T07:22:04.605Z,556.0000
2022-09-12T07:23:04.781Z,555.0000
2022-09-12T07:24:07.053Z,558.0000
2022-09-12T07:25:09.353Z,556.0000
2022-09-12T07:26:11.640Z,558.0000
2022-09-12T07:27:13.939Z,555.0000
2022-09-12T07:28:16.261Z,559.0000
2022-09-12T07:29:36.586Z,560.0000
2022-09-12T07:30:18.738Z,562.0000
2022-09-12T07:31:21.037Z,563.0000
2022-09-12T07:32:23.353Z,562.0000
2022-09-12T07:33:25.704Z,564.0000
2022-09-12T07:34:28.024Z,564.0000
2022-09-12T07:35:28.247Z,568.0000
2022-09-12T07:36:30.423Z,570.0000
2022-09-12T07:37:32.745Z,571.0000
2022-09-12T07:38:35.226Z,573.0000
2022-09-12T07:39:37.447Z,573.0000
2022-09-12T07:40:39.718Z,576.0000
2022-09-12T07:41:39.895Z,576.0000
2022-09-12T07:42:42.212Z,573.0000
2022-09-12T07:43:44.598Z,573.0000
2022-09-12T07:44:46.850Z,571.0000
2022-09-12T07:45:49.187Z,573.0000
2022-09-12T07:46:51.436Z,576.0000
2022-09-12T07:47:51.597Z,579.0000
2022-09-12T07:48:53.935Z,582.0000
2022-09-12T07:49:56.228Z,580.0000
2022-09-12T07:50:58.521Z,579.0000
2022-09-12T07:52:00.759Z,576.0000
2022-09-12T07:53:03.019Z,577.0000
2022-09-12T07:54:05.315Z,572.0000
2022-09-12T07:55:05.436Z,568.0000
2022-09-12T07:56:07.715Z,569.0000
2022-09-12T07:57:09.969Z,571.0000
2022-09-12T07:58:12.245Z,569.0000
2022-09-12T07:59:25.353Z,568.0000
2022-09-12T08:00:16.778Z,571.0000
2022-09-12T08:01:19.084Z,571.0000
2022-09-12T08:02:21.420Z,567.0000
2022-09-12T08:03:21.474Z,568.0000
2022-09-12T08:04:23.751Z,571.0000
2022-09-12T08:05:25.973Z,571.0000
2022-09-12T08:06:28.205Z,574.0000
2022-09-12T08:07:30.437Z,580.0000
2022-09-12T08:08:32.733Z,581.0000
2022-09-12T08:09:35.096Z,579.0000
2022-09-12T08:10:37.280Z,580.0000
2022-09-12T08:11:37.399Z,580.0000
2022-09-12T08:12:39.698Z,580.0000
2022-09-12T08:13:42.092Z,587.0000
2022-09-12T08:14:44.285Z,588.0000
2022-09-12T08:15:46.634Z,587.0000
2022-09-12T08:16:48.904Z,588.0000
2022-09-12T08:17:51.206Z,584.0000
2022-09-12T08:18:51.331Z,587.0000
2022-09-12T08:19:53.637Z,584.0000
2022-09-12T08:20:55.925Z,583.0000
2022-09-12T08:21:58.275Z,585.0000
2022-09-12T08:23:00.586Z,587.0000
2022-09-12T08:24:02.925Z,588.0000
2022-09-12T08:25:03.128Z,587.0000
2022-09-12T08:26:06.480Z,585.0000
2022-09-12T08:27:07.812Z,582.0000
2022-09-12T08:28:10.130Z,583.0000
2022-09-12T08:29:12.454Z,582.0000
2022-09-12T08:30:12.650Z,584.0000
2022-09-12T08:31:14.987Z,582.0000
2022-09-12T08:32:17.248Z,584.0000
2022-09-12T08:33:19.553Z,584.0000
2022-09-12T08:34:21.866Z,567.0000
2022-09-12T08:35:24.208Z,546.0000
2022-09-12T08:36:24.360Z,521.0000
2022-09-12T08:37:26.709Z,511.0000
2022-09-12T08:38:29.041Z,506.0000
2022-09-12T08:39:31.360Z,502.0000
2022-09-12T08:40:33.835Z,476.0000
2022-09-12T08:41:36.103Z,486.0000
2022-09-12T08:42:36.308Z,484.0000
2022-09-12T08:43:38.684Z,480.0000
2022-09-12T08:44:41.030Z,480.0000
2022-09-12T08:45:41.278Z,481.0000
2022-09-12T08:46:43.592Z,480.0000
2022-09-12T08:47:45.896Z,479.0000
2022-09-12T08:48:48.331Z,471.0000
2022-09-12T08:49:50.617Z,476.0000
2022-09-12T08:50:50.869Z,482.0000
2022-09-12T08:51:53.196Z,490.0000
2022-09-12T08:52:55.582Z,494.0000
2022-09-12T08:53:57.920Z,494.0000
2022-09-12T08:55:00.267Z,489.0000
2022-09-12T08:56:00.522Z,493.0000
2022-09-12T08:57:02.763Z,500.0000
2022-09-12T08:58:05.081Z,501.0000
2022-09-12T08:59:07.366Z,484.0000
2022-09-12T09:00:09.707Z,484.0000
2022-09-12T09:01:12.077Z,487.0000
2022-09-12T09:02:12.288Z,485.0000
2022-09-12T09:03:14.570Z,491.0000
2022-09-12T09:04:16.921Z,489.0000
2022-09-12T09:05:19.269Z,490.0000
2022-09-12T09:06:21.641Z,490.0000
2022-09-12T09:07:21.817Z,488.0000
2022-09-12T09:08:24.221Z,479.0000
2022-09-12T09:09:26.581Z,475.0000
2022-09-12T09:10:28.966Z,484.0000
2022-09-12T09:11:31.377Z,484.0000
2022-09-12T09:12:31.553Z,489.0000
2022-09-12T09:13:33.883Z,486.0000
2022-09-12T09:14:36.182Z,482.0000
2022-09-12T09:15:38.589Z,479.0000
2022-09-12T09:16:41.139Z,474.0000
2022-09-12T09:17:41.047Z,466.0000
2022-09-12T09:18:43.341Z,466.0000
2022-09-12T09:19:48.894Z,469.0000
2022-09-12T09:20:47.918Z,469.0000
2022-09-12T09:21:50.354Z,471.0000
2022-09-12T09:22:50.376Z,471.0000
2022-09-12T09:23:52.697Z,472.0000
2022-09-12T09:24:54.948Z,477.0000
2022-09-12T09:25:57.192Z,479.0000
2022-09-12T09:26:59.488Z,468.0000
2022-09-12T09:28:01.746Z,471.0000
2022-09-12T09:29:04.058Z,480.0000
2022-09-12T09:30:06.306Z,481.0000
2022-09-12T09:31:06.512Z,480.0000
2022-09-12T09:32:08.769Z,482.0000
2022-09-12T09:33:11.047Z,475.0000
2022-09-12T09:34:13.351Z,474.0000
2022-09-12T09:35:15.661Z,472.0000
2022-09-12T09:36:17.917Z,474.0000
2022-09-12T09:37:20.201Z,468.0000
2022-09-12T09:38:20.356Z,467.0000
2022-09-12T09:39:22.679Z,470.0000
2022-09-12T09:40:24.967Z,469.0000
2022-09-12T09:41:27.254Z,468.0000
2022-09-12T09:42:29.569Z,472.0000
2022-09-12T09:43:31.854Z,476.0000
2022-09-12T09:44:34.158Z,473.0000
2022-09-12T09:45:34.320Z,473.0000
2022-09-12T09:46:36.676Z,473.0000
2022-09-12T09:47:39.004Z,471.0000
2022-09-12T09:48:41.275Z,465.0000
2022-09-12T09:49:43.564Z,472.0000
2022-09-12T09:50:45.787Z,466.0000
2022-09-12T09:51:45.916Z,474.0000
2022-09-12T09:52:48.327Z,474.0000
2022-09-12T09:53:50.570Z,469.0000
2022-09-12T09:54:52.895Z,471.0000
2022-09-12T09:55:55.204Z,472.0000
2022-09-12T09:56:55.388Z,467.0000
2022-09-12T09:57:57.792Z,469.0000
2022-09-12T09:58:59.961Z,469.0000
2022-09-12T10:00:02.257Z,472.0000
2022-09-12T10:01:04.617Z,475.0000
2022-09-12T10:02:06.927Z,475.0000
2022-09-12T10:03:13.468Z,473.0000
2022-09-12T10:04:09.375Z,471.0000
2022-09-12T10:05:11.679Z,469.0000
2022-09-12T10:06:13.992Z,470.0000
2022-09-12T10:07:16.313Z,473.0000
2022-09-12T10:08:18.607Z,476.0000
2022-09-12T10:09:20.863Z,478.0000
2022-09-12T10:10:20.997Z,479.0000
2022-09-12T10:11:23.221Z,480.0000
2022-09-12T10:12:25.482Z,480.0000
2022-09-12T10:13:27.790Z,481.0000
2022-09-12T10:14:30.042Z,482.0000
2022-09-12T10:15:32.392Z,480.0000
2022-09-12T10:16:34.638Z,479.0000
2022-09-12T10:17:36.922Z,478.0000
2022-09-12T10:18:37.094Z,478.0000
2022-09-12T10:19:39.367Z,478.0000
2022-09-12T10:20:41.592Z,477.0000
2022-09-12T10:21:43.907Z,474.0000
2022-09-12T10:22:46.230Z,477.0000
2022-09-12T10:23:48.645Z,478.0000
2022-09-12T10:24:50.854Z,478.0000
2022-09-12T10:25:51.031Z,479.0000
2022-09-12T10:26:56.598Z,479.0000
2022-09-12T10:27:55.629Z,479.0000
2022-09-12T10:28:57.966Z,479.0000
2022-09-12T10:29:58.126Z,478.0000
2022-09-12T10:31:00.499Z,481.0000
2022-09-12T10:32:02.758Z,483.0000
2022-09-12T10:33:05.036Z,481.0000
2022-09-12T10:34:07.330Z,481.0000
2022-09-12T10:35:09.533Z,480.0000
2022-09-12T10:36:11.759Z,477.0000
2022-09-12T10:37:11.836Z,477.0000
2022-09-12T10:38:14.115Z,476.0000
2022-09-12T10:39:16.410Z,480.0000
2022-09-12T10:40:18.693Z,480.0000
2022-09-12T10:42:10.447Z,463.0000
2022-09-12T10:43:12.507Z,466.0000
2022-09-12T10:44:14.752Z,462.0000
2022-09-12T10:45:17.108Z,457.0000
2022-09-12T10:46:19.290Z,460.0000
2022-09-12T10:47:21.434Z,459.0000
2022-09-12T10:48:23.656Z,457.0000
2022-09-12T10:49:25.871Z,459.0000
2022-09-12T10:50:25.992Z,456.0000
2022-09-12T10:51:28.185Z,456.0000
2022-09-12T10:52:30.404Z,457.0000
2022-09-12T10:53:34.717Z,455.0000
2022-09-12T10:54:34.868Z,454.0000
2022-09-12T10:55:37.180Z,454.0000
2022-09-12T10:56:39.291Z,456.0000
2022-09-12T10:57:41.531Z,456.0000
2022-09-12T10:58:43.753Z,453.0000
2022-09-12T10:59:45.974Z,453.0000
2022-09-12T11:00:48.211Z,453.0000
2022-09-12T11:01:50.491Z,452.0000
2022-09-12T11:02:52.736Z,453.0000
2022-09-12T11:03:52.722Z,456.0000
2022-09-12T11:04:54.920Z,457.0000
2022-09-12T11:05:57.249Z,457.0000
2022-09-12T11:06:59.336Z,456.0000
2022-09-12T11:08:01.523Z,457.0000
2022-09-12T11:09:03.746Z,455.0000
2022-09-12T11:10:05.974Z,453.0000
2022-09-12T11:11:08.297Z,452.0000
2022-09-12T11:12:10.374Z,450.0000
2022-09-12T11:13:12.626Z,452.0000
2022-09-12T11:14:14.863Z,451.0000
2022-09-12T11:15:17.036Z,450.0000
2022-09-12T11:16:19.412Z,450.0000
2022-09-12T11:17:19.412Z,451.0000
2022-09-12T11:18:21.692Z,451.0000
2022-09-12T11:19:23.962Z,455.0000
2022-09-12T11:20:26.260Z,450.0000
2022-09-12T11:21:28.591Z,452.0000
2022-09-12T11:22:32.054Z,452.0000
2022-09-12T11:23:33.103Z,447.0000
2022-09-12T11:24:35.352Z,446.0000
2022-09-12T11:25:35.473Z,448.0000
2022-09-12T11:26:37.774Z,450.0000
2022-09-12T11:27:40.047Z,454.0000
2022-09-12T11:28:46.683Z,454.0000
2022-09-12T11:29:44.476Z,454.0000
2022-09-12T11:30:46.751Z,450.0000
2022-09-12T11:31:49.004Z,448.0000
2022-09-12T11:32:51.193Z,451.0000
2022-09-12T11:33:56.614Z,454.0000
2022-09-12T11:34:55.658Z,454.0000
2022-09-12T11:35:55.852Z,454.0000
2022-09-12T11:36:58.061Z,449.0000
2022-09-12T11:38:00.163Z,448.0000
2022-09-12T11:39:02.403Z,451.0000
2022-09-12T11:40:04.694Z,453.0000
2022-09-12T11:41:06.860Z,455.0000
2022-09-12T11:42:09.133Z,459.0000
2022-09-12T11:43:11.342Z,459.0000
2022-09-12T11:44:13.611Z,457.0000
2022-09-12T11:45:15.842Z,457.0000
2022-09-12T11:46:18.245Z,459.0000
2022-09-12T11:47:20.373Z,462.0000
2022-09-12T11:48:22.581Z,467.0000
2022-09-12T11:49:24.838Z,467.0000
2022-09-12T11:50:27.061Z,465.0000
2022-09-12T11:51:29.326Z,464.0000
2022-09-12T11:52:31.685Z,461.0000
2022-09-12T11:53:33.832Z,458.0000
2022-09-12T11:54:36.077Z,459.0000
2022-09-12T11:55:38.305Z,458.0000
2022-09-12T11:56:38.415Z,455.0000
2022-09-12T11:57:40.697Z,455.0000
2022-09-12T11:58:42.911Z,455.0000
2022-09-12T11:59:45.139Z,456.0000
2022-09-12T12:00:47.362Z,455.0000
2022-09-12T12:01:49.666Z,452.0000
2022-09-12T12:02:51.979Z,449.0000
2022-09-12T12:03:54.319Z,446.0000
2022-09-12T12:04:56.570Z,447.0000
2022-09-12T12:05:56.707Z,446.0000
2022-09-12T12:06:58.955Z,447.0000
2022-09-12T12:08:01.331Z,445.0000
2022-09-12T12:09:03.500Z,447.0000
2022-09-12T12:10:05.791Z,452.0000
2022-09-12T12:11:08.062Z,452.0000